Time;durP1;ratioP1;P1;durP2;ratioP2;P2;SDS_P1;SDS_P2;PMS_P1;PMS_P2;Temp;Humidity;BMP_temperature;BMP_pressure;BME280_temperature;BME280_humidity;BME280_pressure;Samples;Min_cycle;Max_cycle;Signal;HPM_P1;HPM_P2
2021/04/10 00:00:51;;;;;;;12.63;2.08;;;;;;;;;;4976330;28;20046;-84
2021/04/10 00:03:17;;;;;;;11.30;2.47;;;;;;;;;;4976468;28;20042;-84
2021/04/10 00:05:43;;;;;;;11.13;2.38;;;;;;;;;;4975093;28;20042;-84
2021/04/10 00:08:09;;;;;;;8.13;2.40;;;;;;;;;;4975235;28;20093;-83
2021/04/10 00:10:35;;;;;;;9.20;2.30;;;;;;;;;;4975115;28;20042;-84
2021/04/10 00:13:03;;;;;;;9.05;2.30;;;;;;;;;;4975081;28;20446;-84
2021/04/10 00:15:29;;;;;;;11.90;2.55;;;;;;;;;;4958967;28;20093;-84
2021/04/10 00:17:55;;;;;;;9.68;2.53;;;;;;;;;;4974909;28;20039;-84
2021/04/10 00:20:21;;;;;;;7.97;2.50;;;;;;;;;;4959053;28;20125;-83
2021/04/10 00:22:47;;;;;;;7.30;2.17;;;;;;;;;;4974847;28;20043;-83
2021/04/10 00:25:14;;;;;;;6.93;2.15;;;;;;;;;;4974834;28;20054;-83
2021/04/10 00:27:40;;;;;;;5.80;2.00;;;;;;;;;;4974634;28;20055;-83
2021/04/10 00:30:07;;;;;;;7.90;2.20;;;;;;;;;;4974765;28;20070;-83
2021/04/10 00:32:33;;;;;;;11.52;2.97;;;;;;;;;;4974641;28;20051;-84
2021/04/10 00:34:59;;;;;;;5.95;2.10;;;;;;;;;;4974607;28;20089;-83
2021/04/10 00:37:25;;;;;;;7.25;2.20;;;;;;;;;;4974589;28;20045;-83
2021/04/10 00:39:51;;;;;;;8.75;2.22;;;;;;;;;;4975707;28;20038;-83
2021/04/10 00:42:17;;;;;;;10.95;2.33;;;;;;;;;;4974534;28;20035;-83
2021/04/10 00:44:43;;;;;;;5.00;2.00;;;;;;;;;;4974345;28;20049;-83
2021/04/10 00:47:09;;;;;;;8.00;2.17;;;;;;;;;;4975610;28;20545;-83
2021/04/10 00:49:35;;;;;;;7.65;2.28;;;;;;;;;;4974280;28;20114;-83
2021/04/10 00:52:01;;;;;;;7.00;2.05;;;;;;;;;;4973496;28;20061;-83
2021/04/10 00:54:27;;;;;;;6.72;2.22;;;;;;;;;;4958333;28;20474;-83
2021/04/10 00:56:53;;;;;;;8.55;2.50;;;;;;;;;;4958117;28;20482;-83
2021/04/10 00:59:19;;;;;;;7.78;1.65;;;;;;;;;;4975353;28;20493;-83
2021/04/10 01:01:45;;;;;;;10.05;2.20;;;;;;;;;;4975437;28;20238;-84
2021/04/10 01:04:11;;;;;;;6.78;2.13;;;;;;;;;;4974209;28;20096;-83
2021/04/10 01:06:37;;;;;;;13.13;2.92;;;;;;;;;;4958154;28;20505;-83
2021/04/10 01:09:03;;;;;;;8.35;1.80;;;;;;;;;;4974332;28;20043;-83
2021/04/10 01:11:33;;;;;;;8.55;2.53;;;;;;;;;;4973946;28;20043;-83
2021/04/10 01:14:19;;;;;;;9.13;2.35;;;;;;;;;;4973935;28;20270;-83
2021/04/10 01:16:52;;;;;;;11.02;2.88;;;;;;;;;;4975001;28;20039;-83
2021/04/10 01:19:22;;;;;;;5.35;2.08;;;;;;;;;;4973937;28;20074;-84
2021/04/10 01:22:05;;;;;;;9.88;2.30;;;;;;;;;;4973808;28;20093;-84
2021/04/10 01:24:52;;;;;;;8.50;2.50;;;;;;;;;;4973825;28;20105;-84
2021/04/10 01:27:25;;;;;;;11.02;2.40;;;;;;;;;;4967487;28;20051;-84
2021/04/10 01:29:53;;;;;;;7.80;2.28;;;;;;;;;;4974852;28;20113;-83
2021/04/10 01:32:19;;;;;;;9.05;2.45;;;;;;;;;;4957617;28;20097;-83
2021/04/10 01:34:49;;;;;;;11.30;2.50;;;;;;;;;;4941486;28;20126;-83
2021/04/10 01:37:16;;;;;;;9.52;2.42;;;;;;;;;;4957417;28;20038;-83
2021/04/10 01:39:42;;;;;;;9.07;2.22;;;;;;;;;;4941834;28;20146;-83
2021/04/10 01:42:08;;;;;;;12.40;2.42;;;;;;;;;;4974681;28;20431;-83
2021/04/10 01:44:34;;;;;;;9.35;2.38;;;;;;;;;;4957378;28;20498;-83
2021/04/10 01:47:00;;;;;;;10.93;2.55;;;;;;;;;;4957234;28;20043;-84
2021/04/10 01:49:26;;;;;;;10.63;2.75;;;;;;;;;;4957375;28;20093;-83
2021/04/10 01:51:52;;;;;;;9.07;2.45;;;;;;;;;;4957373;28;20335;-83
2021/04/10 01:54:19;;;;;;;6.47;2.15;;;;;;;;;;4941295;28;20050;-83
2021/04/10 01:56:45;;;;;;;6.72;2.08;;;;;;;;;;4941111;28;20457;-83
2021/04/10 01:59:13;;;;;;;5.68;2.42;;;;;;;;;;4941168;28;20077;-83
2021/04/10 02:01:39;;;;;;;7.80;3.13;;;;;;;;;;4956955;28;20073;-82
2021/04/10 02:04:05;;;;;;;11.48;2.80;;;;;;;;;;4956993;28;20043;-83
2021/04/10 02:06:31;;;;;;;9.27;2.42;;;;;;;;;;4956931;28;20038;-82
2021/04/10 02:08:57;;;;;;;8.18;2.60;;;;;;;;;;4941030;28;20034;-83
2021/04/10 02:11:23;;;;;;;6.63;2.47;;;;;;;;;;4956936;28;20121;-82
2021/04/10 02:13:49;;;;;;;14.05;3.28;;;;;;;;;;4956879;28;20077;-82
2021/04/10 02:16:16;;;;;;;6.95;2.50;;;;;;;;;;4956786;28;20039;-82
2021/04/10 02:18:42;;;;;;;8.80;2.05;;;;;;;;;;4940914;28;20042;-83
2021/04/10 02:21:10;;;;;;;8.20;3.45;;;;;;;;;;4956790;28;20133;-83
2021/04/10 02:23:39;;;;;;;7.97;2.67;;;;;;;;;;4956981;28;20045;-83
2021/04/10 02:26:06;;;;;;;10.95;2.70;;;;;;;;;;4940430;28;20068;-83
2021/04/10 02:28:32;;;;;;;12.70;2.88;;;;;;;;;;4973733;28;20045;-83
2021/04/10 02:30:59;;;;;;;8.45;2.60;;;;;;;;;;4956569;28;20410;-83
2021/04/10 02:33:27;;;;;;;11.30;2.72;;;;;;;;;;4940642;28;20034;-83
2021/04/10 02:35:53;;;;;;;9.85;3.20;;;;;;;;;;4956507;28;20046;-83
2021/04/10 02:38:20;;;;;;;12.63;3.80;;;;;;;;;;4973643;28;20046;-84
2021/04/10 02:40:48;;;;;;;12.23;3.10;;;;;;;;;;4940519;28;20046;-84
2021/04/10 02:43:21;;;;;;;17.60;4.00;;;;;;;;;;4940562;28;20094;-83
2021/04/10 02:45:48;;;;;;;15.95;4.38;;;;;;;;;;4956146;28;20118;-83
2021/04/10 02:48:28;;;;;;;12.40;3.30;;;;;;;;;;4956505;28;20038;-83
2021/04/10 02:50:54;;;;;;;12.45;4.38;;;;;;;;;;4956405;28;20050;-83
2021/04/10 02:53:20;;;;;;;12.18;4.15;;;;;;;;;;4940267;28;20051;-83
2021/04/10 02:55:47;;;;;;;14.45;4.22;;;;;;;;;;4956096;28;20043;-83
2021/04/10 02:58:13;;;;;;;12.25;4.05;;;;;;;;;;4973661;28;20073;-83
2021/04/10 03:00:40;;;;;;;13.38;4.97;;;;;;;;;;4956275;28;20043;-83
2021/04/10 03:03:06;;;;;;;15.00;5.35;;;;;;;;;;4956282;28;20117;-84
2021/04/10 03:05:32;;;;;;;17.10;5.15;;;;;;;;;;4956123;28;20039;-84
2021/04/10 03:07:58;;;;;;;16.58;6.00;;;;;;;;;;4956057;28;20054;-83
2021/04/10 03:10:24;;;;;;;17.70;6.47;;;;;;;;;;4956066;28;20039;-83
2021/04/10 03:12:52;;;;;;;15.98;6.30;;;;;;;;;;4956112;28;20113;-82
2021/04/10 03:15:18;;;;;;;18.00;5.90;;;;;;;;;;4943712;28;20108;-83
2021/04/10 03:17:47;;;;;;;16.58;5.25;;;;;;;;;;4977070;28;20046;-83
2021/04/10 03:20:14;;;;;;;15.38;5.38;;;;;;;;;;4960325;28;20049;-83
2021/04/10 03:22:43;;;;;;;14.27;4.95;;;;;;;;;;4959980;28;20073;-83
2021/04/10 03:25:10;;;;;;;14.57;5.45;;;;;;;;;;4977047;28;20047;-83
2021/04/10 03:27:36;;;;;;;15.23;5.43;;;;;;;;;;4970150;28;20082;-83
2021/04/10 03:30:02;;;;;;;9.00;4.30;;;;;;;;;;4959813;28;20406;-83
2021/04/10 03:32:28;;;;;;;17.90;4.88;;;;;;;;;;4976984;28;20050;-83
2021/04/10 03:34:54;;;;;;;15.77;4.18;;;;;;;;;;4975796;28;20126;-83
2021/04/10 03:37:20;;;;;;;13.98;5.18;;;;;;;;;;4975567;28;20045;-83
2021/04/10 03:39:46;;;;;;;15.98;5.18;;;;;;;;;;4959809;28;20042;-83
2021/04/10 03:42:12;;;;;;;12.65;4.50;;;;;;;;;;4975887;28;20034;-83
2021/04/10 03:44:38;;;;;;;12.43;4.70;;;;;;;;;;4975522;28;20120;-83
2021/04/10 03:47:05;;;;;;;13.15;4.28;;;;;;;;;;4975495;28;20482;-83
2021/04/10 03:49:31;;;;;;;20.00;5.55;;;;;;;;;;4975516;28;20043;-82
2021/04/10 03:51:57;;;;;;;13.35;3.90;;;;;;;;;;4975473;28;20041;-82
2021/04/10 03:54:23;;;;;;;10.80;3.47;;;;;;;;;;4976829;28;20105;-82
2021/04/10 03:56:49;;;;;;;11.95;4.00;;;;;;;;;;4976485;28;20494;-83
2021/04/10 03:59:15;;;;;;;14.48;3.92;;;;;;;;;;4975493;28;20035;-83
2021/04/10 04:01:41;;;;;;;11.88;4.22;;;;;;;;;;4959260;28;20046;-83
2021/04/10 04:04:07;;;;;;;9.90;3.55;;;;;;;;;;4958828;28;20525;-84
2021/04/10 04:06:33;;;;;;;11.30;3.58;;;;;;;;;;4976170;28;20085;-84
2021/04/10 04:08:59;;;;;;;16.40;4.43;;;;;;;;;;4959199;28;20079;-84
2021/04/10 04:11:25;;;;;;;12.05;3.47;;;;;;;;;;4976299;28;20038;-84
2021/04/10 04:13:51;;;;;;;9.98;3.78;;;;;;;;;;4976139;28;20043;-84
2021/04/10 04:16:17;;;;;;;12.23;3.78;;;;;;;;;;4974943;28;20038;-83
2021/04/10 04:18:45;;;;;;;9.30;3.55;;;;;;;;;;4975077;28;20097;-83
2021/04/10 04:21:11;;;;;;;7.25;3.05;;;;;;;;;;4958875;28;20039;-83
2021/04/10 04:23:37;;;;;;;13.57;4.15;;;;;;;;;;4976044;28;20045;-83
2021/04/10 04:26:03;;;;;;;12.30;3.67;;;;;;;;;;4957375;28;20130;-83
2021/04/10 04:28:29;;;;;;;9.93;3.60;;;;;;;;;;4974528;28;20125;-83
2021/04/10 04:30:57;;;;;;;10.73;3.47;;;;;;;;;;4974914;28;20047;-83
2021/04/10 04:33:23;;;;;;;12.95;3.95;;;;;;;;;;4974767;28;20093;-83
2021/04/10 04:35:49;;;;;;;9.05;3.53;;;;;;;;;;4958472;28;20416;-83
2021/04/10 04:38:15;;;;;;;12.52;4.10;;;;;;;;;;4974739;28;20042;-83
2021/04/10 04:40:41;;;;;;;12.70;4.03;;;;;;;;;;4974601;28;20038;-83
2021/04/10 04:43:07;;;;;;;7.95;3.13;;;;;;;;;;4958477;28;20039;-83
2021/04/10 04:45:33;;;;;;;7.47;3.75;;;;;;;;;;4974417;28;20050;-82
2021/04/10 04:47:59;;;;;;;12.07;3.70;;;;;;;;;;4975522;28;20043;-82
2021/04/10 04:50:25;;;;;;;12.55;4.07;;;;;;;;;;4974284;28;20039;-82
2021/04/10 04:52:51;;;;;;;9.10;3.22;;;;;;;;;;4975618;28;20046;-82
2021/04/10 04:55:17;;;;;;;11.30;3.15;;;;;;;;;;4975522;28;20406;-82
2021/04/10 04:57:43;;;;;;;8.93;3.60;;;;;;;;;;4975287;28;20045;-82
2021/04/10 05:00:09;;;;;;;11.85;4.28;;;;;;;;;;4975398;28;20049;-82
2021/04/10 05:02:35;;;;;;;14.88;4.53;;;;;;;;;;4974221;28;20046;-82
2021/04/10 05:05:01;;;;;;;9.45;3.40;;;;;;;;;;4975163;28;20043;-82
2021/04/10 05:07:27;;;;;;;9.77;3.33;;;;;;;;;;4974009;28;20414;-82
2021/04/10 05:09:53;;;;;;;13.40;4.10;;;;;;;;;;4974074;28;20050;-83
2021/04/10 05:12:19;;;;;;;11.63;3.97;;;;;;;;;;4958151;28;20042;-83
2021/04/10 05:14:45;;;;;;;10.80;3.95;;;;;;;;;;4974125;28;20049;-83
2021/04/10 05:17:11;;;;;;;11.20;3.58;;;;;;;;;;4973875;28;20038;-83
2021/04/10 05:19:39;;;;;;;9.48;3.40;;;;;;;;;;4974894;28;20047;-83
2021/04/10 05:22:05;;;;;;;13.05;3.75;;;;;;;;;;4974977;28;20074;-83
2021/04/10 05:24:31;;;;;;;11.73;3.22;;;;;;;;;;4973760;28;20085;-83
2021/04/10 05:26:57;;;;;;;9.52;3.15;;;;;;;;;;4973475;28;20394;-83
2021/04/10 05:29:23;;;;;;;8.23;3.10;;;;;;;;;;4973816;28;20035;-83
2021/04/10 05:31:49;;;;;;;12.23;3.97;;;;;;;;;;4973802;28;20074;-83
2021/04/10 05:34:15;;;;;;;12.13;3.78;;;;;;;;;;4973603;28;20469;-83
2021/04/10 05:36:41;;;;;;;9.05;4.28;;;;;;;;;;4973129;28;20379;-83
2021/04/10 05:39:07;;;;;;;8.98;3.45;;;;;;;;;;4974640;28;20039;-83
2021/04/10 05:41:33;;;;;;;10.85;3.72;;;;;;;;;;4973572;28;20035;-83
2021/04/10 05:43:59;;;;;;;7.95;4.25;;;;;;;;;;4973406;28;20049;-83
2021/04/10 05:46:25;;;;;;;9.93;3.25;;;;;;;;;;4957304;28;20042;-83
2021/04/10 05:48:51;;;;;;;9.35;3.00;;;;;;;;;;4974461;28;20482;-83
2021/04/10 05:51:17;;;;;;;11.40;3.30;;;;;;;;;;4973071;28;20051;-82
2021/04/10 05:53:46;;;;;;;7.03;2.75;;;;;;;;;;4957326;28;20233;-81
2021/04/10 05:56:12;;;;;;;9.48;4.05;;;;;;;;;;4957455;28;20043;-83
2021/04/10 05:58:39;;;;;;;9.68;3.00;;;;;;;;;;4973187;28;20499;-83
2021/04/10 06:01:05;;;;;;;9.65;3.00;;;;;;;;;;4973061;28;20039;-82
2021/04/10 06:03:31;;;;;;;8.07;3.10;;;;;;;;;;4974198;28;20430;-81
2021/04/10 06:05:57;;;;;;;8.73;2.92;;;;;;;;;;4974003;28;20042;-83
2021/04/10 06:08:23;;;;;;;11.18;2.80;;;;;;;;;;4973090;28;20035;-82
2021/04/10 06:10:49;;;;;;;10.35;2.50;;;;;;;;;;4973002;28;20047;-83
2021/04/10 06:13:15;;;;;;;13.85;2.70;;;;;;;;;;4973980;28;20042;-83
2021/04/10 06:15:41;;;;;;;4.40;2.00;;;;;;;;;;4973928;28;20047;-83
2021/04/10 06:18:07;;;;;;;10.32;2.38;;;;;;;;;;4972729;28;20043;-84
2021/04/10 06:20:35;;;;;;;9.18;2.33;;;;;;;;;;4956897;28;20450;-84
2021/04/10 06:23:01;;;;;;;6.53;2.20;;;;;;;;;;4972705;28;20065;-83
2021/04/10 06:25:27;;;;;;;6.43;2.22;;;;;;;;;;4972661;28;20402;-82
2021/04/10 06:27:53;;;;;;;6.32;1.77;;;;;;;;;;4975479;28;20402;-82
2021/04/10 06:30:19;;;;;;;7.15;1.80;;;;;;;;;;4973760;28;20043;-83
2021/04/10 06:32:45;;;;;;;9.95;1.75;;;;;;;;;;4956527;28;20118;-84
2021/04/10 06:35:11;;;;;;;7.80;1.75;;;;;;;;;;4975775;28;20537;-84
2021/04/10 06:37:37;;;;;;;6.45;1.50;;;;;;;;;;4974801;28;20122;-85
2021/04/10 06:40:04;;;;;;;9.35;1.50;;;;;;;;;;4972288;28;20122;-85
2021/04/10 06:42:30;;;;;;;8.45;1.77;;;;;;;;;;4973522;28;20035;-86
2021/04/10 06:44:56;;;;;;;5.55;1.40;;;;;;;;;;4956186;28;20081;-83
2021/04/10 06:47:23;;;;;;;8.65;1.40;;;;;;;;;;4956295;28;20071;-84
2021/04/10 06:49:49;;;;;;;4.18;1.27;;;;;;;;;;4971733;28;20042;-84
2021/04/10 06:52:16;;;;;;;9.85;1.80;;;;;;;;;;4972236;28;20078;-83
2021/04/10 06:54:42;;;;;;;7.18;1.40;;;;;;;;;;4972229;28;20042;-84
2021/04/10 06:57:14;;;;;;;9.93;1.63;;;;;;;;;;4972193;28;20039;-82
2021/04/10 06:59:51;;;;;;;8.15;1.60;;;;;;;;;;4972079;28;20050;-85
2021/04/10 07:02:18;;;;;;;8.05;1.25;;;;;;;;;;4956951;28;20047;-82
2021/04/10 07:04:44;;;;;;;13.60;1.60;;;;;;;;;;4953913;29;20044;-83
2021/04/10 07:07:10;;;;;;;6.05;1.58;;;;;;;;;;4961751;28;20057;-82
2021/04/10 07:09:36;;;;;;;11.38;1.85;;;;;;;;;;4970680;28;20042;-83
2021/04/10 07:12:05;;;;;;;13.93;1.30;;;;;;;;;;4971502;28;20050;-82
2021/04/10 07:14:31;;;;;;;6.78;1.42;;;;;;;;;;4972021;28;20093;-84
2021/04/10 07:16:57;;;;;;;6.65;1.42;;;;;;;;;;4955769;28;20046;-83
2021/04/10 07:19:27;;;;;;;10.88;2.08;;;;;;;;;;4971801;28;20046;-84
2021/04/10 07:22:01;;;;;;;7.38;1.35;;;;;;;;;;4969444;28;20039;-84
2021/04/10 07:24:46;;;;;;;24.83;2.10;;;;;;;;;;4955285;28;20054;-84
2021/04/10 07:27:14;;;;;;;7.10;1.20;;;;;;;;;;4972879;28;20442;-81
2021/04/10 07:29:49;;;;;;;11.40;1.45;;;;;;;;;;4955971;28;20460;-81
2021/04/10 07:32:25;;;;;;;11.32;1.92;;;;;;;;;;4955962;28;20450;-82
2021/04/10 07:34:51;;;;;;;8.00;1.63;;;;;;;;;;4956557;28;20046;-83
2021/04/10 07:37:36;;;;;;;7.90;1.30;;;;;;;;;;4956126;28;20042;-82
2021/04/10 07:40:09;;;;;;;14.68;1.60;;;;;;;;;;4972974;28;20046;-83
2021/04/10 07:42:35;;;;;;;;;;;;;;;;;;4973364;28;20046;-83
2021/04/10 07:45:01;;;;;;;10.52;1.40;;;;;;;;;;4972800;28;20361;-83
2021/04/10 07:47:37;;;;;;;6.13;1.25;;;;;;;;;;4939746;28;20043;-82
2021/04/10 07:50:17;;;;;;;8.15;1.50;;;;;;;;;;4955885;28;20162;-83
2021/04/10 07:52:43;;;;;;;5.53;1.20;;;;;;;;;;4939810;28;20031;-82
2021/04/10 07:55:09;;;;;;;6.82;1.30;;;;;;;;;;4955672;28;20078;-81
2021/04/10 07:57:36;;;;;;;5.97;1.20;;;;;;;;;;4955361;28;20081;-83
2021/04/10 08:00:04;;;;;;;9.95;1.30;;;;;;;;;;4973955;28;20046;-83
2021/04/10 08:02:35;;;;;;;11.85;1.42;;;;;;;;;;4944009;28;20047;-83
2021/04/10 08:05:02;;;;;;;7.22;1.10;;;;;;;;;;4976272;28;20123;-84
2021/04/10 08:07:28;;;;;;;6.63;1.23;;;;;;;;;;4943017;28;20058;-83
2021/04/10 08:09:58;;;;;;;6.75;1.67;;;;;;;;;;4959303;28;20226;-82
2021/04/10 08:12:28;;;;;;;6.30;1.17;;;;;;;;;;4959021;28;20486;-82
2021/04/10 08:14:56;;;;;;;6.15;1.10;;;;;;;;;;4943152;28;20097;-82
2021/04/10 08:17:41;;;;;;;12.18;1.35;;;;;;;;;;4958964;28;20113;-82
2021/04/10 08:20:26;;;;;;;5.97;0.98;;;;;;;;;;4975947;28;20101;-82
2021/04/10 08:22:54;;;;;;;9.82;1.23;;;;;;;;;;4958839;28;20561;-83
2021/04/10 08:25:30;;;;;;;10.18;1.42;;;;;;;;;;4958658;28;20050;-83
2021/04/10 08:27:56;;;;;;;6.22;1.35;;;;;;;;;;4970002;28;20055;-82
2021/04/10 08:30:22;;;;;;;5.97;1.20;;;;;;;;;;4974875;28;20470;-82
2021/04/10 08:32:48;;;;;;;6.25;1.35;;;;;;;;;;4975794;28;20070;-82
2021/04/10 08:35:14;;;;;;;7.18;1.20;;;;;;;;;;4958102;28;20115;-82
2021/04/10 08:37:41;;;;;;;5.95;1.45;;;;;;;;;;4974429;28;20035;-83
2021/04/10 08:40:07;;;;;;;5.97;1.23;;;;;;;;;;4974511;28;20066;-84
2021/04/10 08:42:33;;;;;;;7.68;1.30;;;;;;;;;;4974468;28;20117;-82
2021/04/10 08:44:59;;;;;;;7.90;1.27;;;;;;;;;;4974303;28;20047;-81
2021/04/10 08:47:25;;;;;;;8.98;1.42;;;;;;;;;;4975542;28;20038;-83
2021/04/10 08:49:51;;;;;;;7.97;1.30;;;;;;;;;;4974284;28;20109;-83
2021/04/10 08:52:29;;;;;;;8.23;1.42;;;;;;;;;;4974360;28;20062;-83
2021/04/10 08:54:57;;;;;;;8.30;1.17;;;;;;;;;;4974445;28;20042;-82
2021/04/10 08:57:23;;;;;;;6.78;1.27;;;;;;;;;;4974142;28;20104;-83
2021/04/10 08:59:50;;;;;;;8.35;1.33;;;;;;;;;;4974123;28;20437;-83
2021/04/10 09:02:17;;;;;;;8.23;1.67;;;;;;;;;;4958112;28;20042;-84
2021/04/10 09:04:53;;;;;;;9.63;1.42;;;;;;;;;;4957997;28;20053;-83
2021/04/10 09:07:19;;;;;;;7.30;1.58;;;;;;;;;;4958144;28;20070;-83
2021/04/10 09:09:51;;;;;;;6.10;1.50;;;;;;;;;;4973939;28;20043;-83
2021/04/10 09:12:19;;;;;;;3.78;1.08;;;;;;;;;;4974417;28;20498;-83
2021/04/10 09:14:46;;;;;;;7.40;1.58;;;;;;;;;;4957798;28;20057;-83
2021/04/10 09:17:12;;;;;;;8.13;1.55;;;;;;;;;;4973778;28;20486;-83
2021/04/10 09:19:38;;;;;;;8.05;1.60;;;;;;;;;;4973792;28;20457;-83
2021/04/10 09:22:04;;;;;;;7.60;1.52;;;;;;;;;;4957704;28;20042;-83
2021/04/10 09:24:42;;;;;;;5.00;1.25;;;;;;;;;;4973665;28;20042;-83
2021/04/10 09:27:19;;;;;;;6.07;1.50;;;;;;;;;;4973400;28;20058;-82
2021/04/10 09:29:45;;;;;;;10.02;1.25;;;;;;;;;;4957299;28;20122;-82
2021/04/10 09:32:12;;;;;;;7.05;1.10;;;;;;;;;;4974659;28;20461;-83
2021/04/10 09:34:45;;;;;;;8.07;1.52;;;;;;;;;;4957656;28;20046;-87
2021/04/10 09:37:11;;;;;;;7.85;1.40;;;;;;;;;;4973310;28;20047;-84
2021/04/10 09:39:55;;;;;;;9.85;1.38;;;;;;;;;;4973549;28;20399;-83
2021/04/10 09:42:37;;;;;;;6.90;2.25;;;;;;;;;;4957615;28;20039;-83
2021/04/10 09:45:07;;;;;;;7.90;1.83;;;;;;;;;;4974364;28;20043;-83
2021/04/10 09:47:55;;;;;;;7.68;1.85;;;;;;;;;;4974342;28;20042;-83
2021/04/10 09:50:21;;;;;;;7.90;1.67;;;;;;;;;;4974321;28;20038;-83
2021/04/10 09:52:54;;;;;;;9.88;1.58;;;;;;;;;;4957170;28;20042;-83
2021/04/10 09:55:20;;;;;;;5.78;1.38;;;;;;;;;;4973078;28;20101;-84
2021/04/10 09:57:56;;;;;;;7.90;1.10;;;;;;;;;;4973033;28;20035;-83
2021/04/10 10:00:28;;;;;;;6.38;1.75;;;;;;;;;;4972952;28;20142;-86
2021/04/10 10:02:54;;;;;;;6.07;1.33;;;;;;;;;;4974072;28;20043;-84
2021/04/10 10:05:20;;;;;;;6.72;1.60;;;;;;;;;;4957033;28;20077;-82
2021/04/10 10:07:46;;;;;;;7.65;1.33;;;;;;;;;;4972869;28;20430;-84
2021/04/10 10:10:13;;;;;;;6.03;1.08;;;;;;;;;;4973545;28;20069;-82
2021/04/10 10:12:39;;;;;;;8.02;1.38;;;;;;;;;;4960572;28;20126;-83
2021/04/10 10:15:20;;;;;;;6.82;1.48;;;;;;;;;;4957844;28;20066;-82
2021/04/10 10:17:46;;;;;;;7.07;1.38;;;;;;;;;;4973585;28;20419;-84
2021/04/10 10:20:13;;;;;;;5.45;1.48;;;;;;;;;;4972722;28;20042;-83
2021/04/10 10:22:40;;;;;;;10.38;1.98;;;;;;;;;;4973826;28;20050;-83
2021/04/10 10:25:08;;;;;;;6.47;1.90;;;;;;;;;;4972702;28;20348;-86
2021/04/10 10:27:34;;;;;;;6.63;1.38;;;;;;;;;;4972404;28;20058;-84
2021/04/10 10:30:00;;;;;;;8.40;1.35;;;;;;;;;;4973767;28;20109;-84
2021/04/10 10:32:26;;;;;;;2.17;1.00;;;;;;;;;;4973626;28;20483;-83
2021/04/10 10:34:52;;;;;;;11.15;1.73;;;;;;;;;;4972555;28;20494;-84
2021/04/10 10:37:23;;;;;;;5.00;1.27;;;;;;;;;;4972443;28;20056;-84
2021/04/10 10:39:49;;;;;;;7.95;1.75;;;;;;;;;;4956617;28;20038;-84
2021/04/10 10:42:15;;;;;;;8.93;1.83;;;;;;;;;;4973668;28;20090;-88
2021/04/10 10:44:43;;;;;;;11.93;1.55;;;;;;;;;;4970458;28;20062;-84
2021/04/10 10:47:09;;;;;;;9.35;1.67;;;;;;;;;;4970396;28;20506;-84
2021/04/10 10:49:35;;;;;;;12.20;2.10;;;;;;;;;;4972335;28;20065;-84
2021/04/10 10:52:01;;;;;;;5.43;1.40;;;;;;;;;;4972392;28;20483;-84
2021/04/10 10:54:34;;;;;;;9.63;1.80;;;;;;;;;;4972250;28;20402;-84
2021/04/10 10:57:06;;;;;;;10.45;1.58;;;;;;;;;;4972071;28;20482;-83
2021/04/10 10:59:32;;;;;;;5.27;1.40;;;;;;;;;;4972333;28;20061;-83
2021/04/10 11:01:58;;;;;;;7.05;2.10;;;;;;;;;;4972215;28;20493;-83
2021/04/10 11:04:27;;;;;;;6.82;1.30;;;;;;;;;;4973231;28;20049;-84
2021/04/10 11:06:54;;;;;;;6.88;1.85;;;;;;;;;;4972030;28;20034;-84
2021/04/10 11:09:24;;;;;;;4.97;1.38;;;;;;;;;;4972011;28;20041;-84
2021/04/10 11:11:50;;;;;;;7.85;1.67;;;;;;;;;;4956051;28;20063;-84
2021/04/10 11:14:19;;;;;;;8.25;1.40;;;;;;;;;;4972135;28;20117;-84
2021/04/10 11:16:46;;;;;;;6.65;1.55;;;;;;;;;;4973123;28;20114;-83
2021/04/10 11:19:12;;;;;;;7.45;1.80;;;;;;;;;;4956317;28;20119;-84
2021/04/10 11:21:39;;;;;;;7.63;1.38;;;;;;;;;;4972061;28;20054;-83
2021/04/10 11:24:09;;;;;;;5.00;1.20;;;;;;;;;;4971796;28;20035;-86
2021/04/10 11:26:46;;;;;;;8.55;1.58;;;;;;;;;;4971350;28;20066;-83
2021/04/10 11:29:26;;;;;;;6.97;1.52;;;;;;;;;;4971059;28;20049;-83
2021/04/10 11:32:11;;;;;;;4.78;1.90;;;;;;;;;;4972692;28;20035;-82
2021/04/10 11:34:40;;;;;;;5.32;1.50;;;;;;;;;;4973573;28;20049;-82
2021/04/10 11:37:07;;;;;;;4.22;1.38;;;;;;;;;;4975713;28;20042;-82
2021/04/10 11:39:47;;;;;;;5.55;2.22;;;;;;;;;;4975865;28;20042;-83
2021/04/10 11:42:28;;;;;;;10.15;2.13;;;;;;;;;;4975642;28;20042;-82
2021/04/10 11:44:55;;;;;;;5.78;1.60;;;;;;;;;;4976590;28;20042;-83
2021/04/10 11:47:25;;;;;;;7.18;1.90;;;;;;;;;;4975524;28;20038;-83
2021/04/10 11:49:51;;;;;;;5.22;1.27;;;;;;;;;;4975542;28;20042;-83
2021/04/10 11:52:18;;;;;;;5.63;1.65;;;;;;;;;;4976756;28;20312;-83
2021/04/10 11:54:44;;;;;;;5.97;1.85;;;;;;;;;;4976549;28;20042;-82
2021/04/10 11:57:29;;;;;;;5.43;1.92;;;;;;;;;;4975335;28;20041;-83
2021/04/10 12:00:02;;;;;;;6.03;1.77;;;;;;;;;;4975348;28;20106;-83
2021/04/10 12:02:32;;;;;;;6.30;1.60;;;;;;;;;;4975305;28;20050;-83
2021/04/10 12:04:58;;;;;;;4.82;1.70;;;;;;;;;;4975191;28;20050;-83
2021/04/10 12:07:24;;;;;;;7.82;2.30;;;;;;;;;;4975154;28;20427;-83
2021/04/10 12:09:50;;;;;;;3.70;1.20;;;;;;;;;;4975100;28;20039;-83
2021/04/10 12:12:16;;;;;;;6.03;1.58;;;;;;;;;;4976344;28;20042;-83
2021/04/10 12:14:43;;;;;;;5.15;1.30;;;;;;;;;;4975104;28;20387;-83
2021/04/10 12:17:12;;;;;;;6.28;1.85;;;;;;;;;;4975062;28;20097;-83
2021/04/10 12:19:38;;;;;;;3.47;1.90;;;;;;;;;;4975098;28;20042;-82
2021/04/10 12:22:04;;;;;;;5.65;1.58;;;;;;;;;;4974933;28;20493;-83
2021/04/10 12:24:30;;;;;;;4.97;1.55;;;;;;;;;;4974910;28;20043;-83
2021/04/10 12:26:57;;;;;;;5.85;1.58;;;;;;;;;;4974526;28;20113;-84
2021/04/10 12:29:24;;;;;;;7.38;1.95;;;;;;;;;;4974828;28;20035;-83
2021/04/10 12:31:50;;;;;;;6.55;2.00;;;;;;;;;;4975893;28;20065;-83
2021/04/10 12:34:16;;;;;;;8.02;2.00;;;;;;;;;;4974712;28;20090;-84
2021/04/10 12:36:42;;;;;;;8.63;1.73;;;;;;;;;;4974582;28;20043;-83
2021/04/10 12:39:08;;;;;;;4.00;1.60;;;;;;;;;;4974535;28;20030;-85
2021/04/10 12:41:34;;;;;;;4.25;1.52;;;;;;;;;;4974810;28;20035;-85
2021/04/10 12:44:00;;;;;;;8.70;1.70;;;;;;;;;;4958417;28;20069;-86
2021/04/10 12:46:26;;;;;;;5.45;1.60;;;;;;;;;;4974281;28;20047;-86
2021/04/10 12:48:52;;;;;;;4.03;1.48;;;;;;;;;;4958236;28;20050;-85
2021/04/10 12:51:19;;;;;;;5.35;1.60;;;;;;;;;;4974340;28;20046;-85
2021/04/10 12:53:45;;;;;;;5.65;1.90;;;;;;;;;;4958392;28;20082;-86
2021/04/10 12:56:11;;;;;;;5.07;1.70;;;;;;;;;;4974203;28;20046;-85
2021/04/10 12:58:37;;;;;;;7.88;1.67;;;;;;;;;;4974554;28;20589;-86
2021/04/10 13:01:04;;;;;;;7.10;1.70;;;;;;;;;;4958328;28;20129;-86
2021/04/10 13:03:30;;;;;;;3.78;1.85;;;;;;;;;;4974164;28;20038;-85
2021/04/10 13:05:56;;;;;;;6.70;1.73;;;;;;;;;;4974080;28;20035;-85
2021/04/10 13:08:22;;;;;;;6.35;2.75;;;;;;;;;;4974026;28;20045;-86
2021/04/10 13:10:48;;;;;;;8.27;1.88;;;;;;;;;;4957983;28;20502;-86
2021/04/10 13:13:14;;;;;;;6.30;1.42;;;;;;;;;;4973815;28;20113;-85
2021/04/10 13:15:40;;;;;;;5.03;1.70;;;;;;;;;;4973971;28;20050;-85
2021/04/10 13:18:06;;;;;;;5.50;1.63;;;;;;;;;;4957940;28;20046;-86
2021/04/10 13:20:32;;;;;;;9.18;2.35;;;;;;;;;;4957942;28;20063;-85
2021/04/10 13:22:59;;;;;;;6.72;1.77;;;;;;;;;;4973692;28;20038;-85
2021/04/10 13:25:25;;;;;;;5.25;1.95;;;;;;;;;;4957734;28;20047;-85
2021/04/10 13:27:54;;;;;;;6.60;1.52;;;;;;;;;;4973435;28;20063;-85
2021/04/10 13:30:20;;;;;;;7.40;1.95;;;;;;;;;;4957871;28;20070;-85
2021/04/10 13:32:46;;;;;;;6.45;1.95;;;;;;;;;;4973655;28;20497;-85
2021/04/10 13:35:12;;;;;;;7.70;1.88;;;;;;;;;;4973556;28;20089;-84
2021/04/10 13:37:38;;;;;;;6.10;1.80;;;;;;;;;;4957404;28;20561;-86
2021/04/10 13:40:05;;;;;;;6.88;1.98;;;;;;;;;;4973488;28;20430;-85
2021/04/10 13:42:31;;;;;;;9.07;1.77;;;;;;;;;;4973466;28;20118;-85
2021/04/10 13:44:57;;;;;;;7.45;1.83;;;;;;;;;;4973163;28;20469;-85
2021/04/10 13:47:23;;;;;;;6.13;1.80;;;;;;;;;;4973308;28;20039;-85
2021/04/10 13:49:49;;;;;;;10.80;1.95;;;;;;;;;;4973229;28;20047;-85
2021/04/10 13:52:15;;;;;;;9.90;1.98;;;;;;;;;;4957243;28;20093;-84
2021/04/10 13:54:41;;;;;;;4.70;2.20;;;;;;;;;;4974316;28;20043;-85
2021/04/10 13:57:07;;;;;;;4.50;1.80;;;;;;;;;;4972935;28;20418;-86
2021/04/10 13:59:33;;;;;;;5.35;1.70;;;;;;;;;;4957026;28;20474;-86
2021/04/10 14:01:59;;;;;;;4.97;2.00;;;;;;;;;;4973151;28;20525;-85
2021/04/10 14:04:29;;;;;;;6.25;2.00;;;;;;;;;;4972756;28;20067;-86
2021/04/10 14:06:55;;;;;;;8.18;2.22;;;;;;;;;;4956865;28;20106;-85
2021/04/10 14:09:21;;;;;;;7.70;2.50;;;;;;;;;;4972924;28;20482;-85
2021/04/10 14:11:47;;;;;;;7.25;2.03;;;;;;;;;;4956859;28;20042;-85
2021/04/10 14:14:13;;;;;;;7.15;2.45;;;;;;;;;;4956878;28;20146;-84
2021/04/10 14:16:39;;;;;;;5.80;2.00;;;;;;;;;;4974069;28;20047;-84
2021/04/10 14:19:05;;;;;;;6.97;2.28;;;;;;;;;;4972599;28;20045;-83
2021/04/10 14:21:31;;;;;;;9.32;2.47;;;;;;;;;;4972767;28;20042;-85
2021/04/10 14:23:57;;;;;;;9.32;2.67;;;;;;;;;;4973843;28;20543;-85
2021/04/10 14:26:24;;;;;;;7.35;2.13;;;;;;;;;;4972384;28;20055;-85
2021/04/10 14:28:54;;;;;;;9.35;2.53;;;;;;;;;;4956728;28;20047;-85
2021/04/10 14:31:20;;;;;;;7.82;2.35;;;;;;;;;;4956627;28;20450;-86
2021/04/10 14:33:46;;;;;;;10.00;2.40;;;;;;;;;;4972354;28;20054;-85
2021/04/10 14:36:12;;;;;;;8.50;3.05;;;;;;;;;;4972603;28;20065;-86
2021/04/10 14:38:38;;;;;;;5.68;3.15;;;;;;;;;;4972546;28;20487;-85
2021/04/10 14:41:05;;;;;;;7.05;2.40;;;;;;;;;;4972311;28;20398;-83
2021/04/10 14:43:31;;;;;;;8.50;3.15;;;;;;;;;;4972330;28;20093;-86